createdAt,value
2022-09-06T00:01:44.367Z,15.14
2022-09-06T00:04:15.568Z,15.14
2022-09-06T00:06:45.883Z,15.15
2022-09-06T00:09:15.907Z,15.15
2022-09-06T00:11:46.339Z,15.14
2022-09-06T00:14:16.627Z,15.11
2022-09-06T00:16:46.516Z,15.08
2022-09-06T00:19:16.457Z,15.10
2022-09-06T00:21:46.374Z,15.08
2022-09-06T00:24:16.506Z,15.10
2022-09-06T00:26:46.388Z,15.07
2022-09-06T00:29:16.561Z,15.01
2022-09-06T00:31:46.520Z,15.05
2022-09-06T00:34:16.598Z,15.04
2022-09-06T00:36:46.517Z,15.08
2022-09-06T00:39:16.528Z,15.08
2022-09-06T00:41:46.417Z,15.05
2022-09-06T00:44:16.658Z,15.05
2022-09-06T00:46:49.625Z,15.02
2022-09-06T00:49:27.814Z,14.98
2022-09-06T00:52:09.566Z,15.02
2022-09-06T00:54:40.821Z,15.04
2022-09-06T00:57:12.186Z,14.87
2022-09-06T00:59:44.119Z,14.71
2022-09-06T01:02:14.994Z,14.60
2022-09-06T01:04:46.465Z,14.64
2022-09-06T01:07:24.766Z,14.67
2022-09-06T01:10:21.181Z,14.71
2022-09-06T01:13:02.748Z,14.71
2022-09-06T01:15:50.974Z,14.76
2022-09-06T01:18:21.567Z,14.80
2022-09-06T01:21:26.383Z,14.79
2022-09-06T01:24:14.383Z,14.67
2022-09-06T01:26:56.450Z,14.66
2022-09-06T01:29:47.850Z,14.70
2022-09-06T01:32:36.380Z,14.71
2022-09-06T01:35:26.334Z,14.66
2022-09-06T01:37:58.610Z,14.57
2022-09-06T01:40:29.720Z,14.50
2022-09-06T01:43:00.435Z,14.53
2022-09-06T01:46:08.277Z,14.53
2022-09-06T01:49:02.811Z,14.53
2022-09-06T01:52:12.013Z,14.55
2022-09-06T01:54:54.151Z,14.55
2022-09-06T01:58:10.695Z,14.56
2022-09-06T02:00:57.780Z,14.56
2022-09-06T02:03:34.048Z,14.55
2022-09-06T02:06:25.338Z,14.63
2022-09-06T02:09:06.438Z,14.63
2022-09-06T02:11:44.231Z,14.63
2022-09-06T02:14:21.929Z,14.64
2022-09-06T02:16:55.423Z,14.59
2022-09-06T02:20:11.784Z,14.63
2022-09-06T02:22:45.334Z,14.63
2022-09-06T02:25:22.915Z,14.60
2022-09-06T02:27:53.508Z,14.56
2022-09-06T02:30:23.486Z,14.60
2022-09-06T02:33:01.591Z,14.63
2022-09-06T02:35:32.444Z,14.69
2022-09-06T02:38:03.701Z,14.64
2022-09-06T02:40:33.920Z,14.60
2022-09-06T02:43:03.983Z,14.55
2022-09-06T02:45:34.664Z,14.49
2022-09-06T02:48:05.493Z,14.43
2022-09-06T02:50:35.294Z,14.50
2022-09-06T02:53:06.635Z,14.47
2022-09-06T02:55:37.693Z,14.46
2022-09-06T02:58:09.724Z,14.50
2022-09-06T03:00:40.180Z,14.47
2022-09-06T03:03:10.599Z,14.33
2022-09-06T03:05:41.321Z,14.26
2022-09-06T03:08:12.120Z,14.22
2022-09-06T03:10:42.300Z,14.25
2022-09-06T03:13:12.139Z,14.23
2022-09-06T03:15:42.067Z,14.23
2022-09-06T03:18:12.603Z,14.28
2022-09-06T03:20:42.940Z,14.34
2022-09-06T03:23:12.867Z,14.37
2022-09-06T03:25:44.477Z,14.37
2022-09-06T03:28:14.747Z,14.39
2022-09-06T03:30:48.087Z,14.37
2022-09-06T03:33:18.939Z,14.39
2022-09-06T03:35:54.415Z,14.37
2022-09-06T03:38:25.877Z,14.34
2022-09-06T03:40:57.025Z,14.32
2022-09-06T03:43:28.955Z,14.34
2022-09-06T03:45:59.594Z,14.37
2022-09-06T03:48:31.387Z,14.37
2022-09-06T03:51:01.831Z,14.34
2022-09-06T03:53:32.219Z,14.32
2022-09-06T03:56:02.077Z,14.22
2022-09-06T03:58:33.514Z,14.18
2022-09-06T04:01:09.435Z,14.19
2022-09-06T04:03:40.452Z,14.18
2022-09-06T04:06:11.467Z,14.23
2022-09-06T04:08:41.523Z,14.23
2022-09-06T04:11:11.856Z,14.21
2022-09-06T04:13:42.888Z,14.25
2022-09-06T04:16:13.016Z,14.30
2022-09-06T04:18:43.361Z,14.30
2022-09-06T04:21:13.781Z,14.29
2022-09-06T04:23:43.620Z,14.32
2022-09-06T04:26:13.631Z,14.33
2022-09-06T04:28:43.502Z,14.32
2022-09-06T04:31:13.368Z,14.32
2022-09-06T04:33:43.710Z,14.29
2022-09-06T04:36:14.529Z,14.30
2022-09-06T04:38:47.038Z,14.29
2022-09-06T04:41:19.838Z,14.29
2022-09-06T04:43:50.733Z,14.22
2022-09-06T04:46:26.124Z,14.18
2022-09-06T04:48:57.791Z,14.09
2022-09-06T04:51:28.477Z,14.09
2022-09-06T04:53:58.679Z,14.08
2022-09-06T04:56:29.143Z,14.11
2022-09-06T04:58:59.027Z,14.18
2022-09-06T05:01:29.010Z,14.16
2022-09-06T05:03:59.347Z,14.16
2022-09-06T05:06:29.596Z,14.16
2022-09-06T05:08:59.482Z,14.12
2022-09-06T05:11:29.511Z,14.11
2022-09-06T05:13:59.486Z,14.08
2022-09-06T05:16:29.442Z,13.97
2022-09-06T05:18:59.697Z,13.88
2022-09-06T05:21:29.535Z,13.92
2022-09-06T05:23:59.791Z,14.01
2022-09-06T05:26:29.578Z,14.06
2022-09-06T05:28:59.480Z,14.11
2022-09-06T05:31:34.724Z,14.12
2022-09-06T05:34:05.524Z,14.13
2022-09-06T05:36:35.746Z,14.08
2022-09-06T05:39:06.264Z,14.01
2022-09-06T05:41:36.170Z,13.95
2022-09-06T05:44:06.143Z,13.95
2022-09-06T05:46:36.058Z,14.04
2022-09-06T05:49:09.212Z,14.05
2022-09-06T05:51:40.264Z,14.06
2022-09-06T05:54:13.724Z,14.08
2022-09-06T05:56:43.830Z,13.97
2022-09-06T05:59:13.629Z,13.79
2022-09-06T06:01:53.101Z,13.71
2022-09-06T06:04:24.626Z,13.74
2022-09-06T06:06:54.756Z,13.85
2022-09-06T06:09:24.877Z,13.97
2022-09-06T06:11:55.200Z,14.04
2022-09-06T06:14:25.129Z,14.09
2022-09-06T06:16:55.514Z,14.08
2022-09-06T06:19:25.529Z,14.04
2022-09-06T06:21:57.398Z,14.05
2022-09-06T06:24:27.952Z,14.06
2022-09-06T06:26:58.279Z,13.99
2022-09-06T06:29:28.138Z,13.99
2022-09-06T06:31:58.059Z,13.91
2022-09-06T06:34:27.948Z,13.84
2022-09-06T06:36:57.774Z,13.78
2022-09-06T06:39:28.046Z,13.74
2022-09-06T06:41:57.901Z,13.67
2022-09-06T06:44:47.975Z,13.70
2022-09-06T06:47:18.143Z,13.75
2022-09-06T06:49:49.732Z,13.81
2022-09-06T06:52:22.525Z,13.81
2022-09-06T06:54:53.000Z,13.84
2022-09-06T06:57:23.252Z,13.84
2022-09-06T06:59:53.608Z,13.89
2022-09-06T07:02:23.531Z,13.86
2022-09-06T07:04:55.932Z,13.92
2022-09-06T07:12:48.035Z,13.95
2022-09-06T07:15:17.908Z,13.94
2022-09-06T07:17:48.474Z,13.92
2022-09-06T07:20:18.946Z,13.89
2022-09-06T07:22:48.945Z,13.89
2022-09-06T07:25:21.445Z,13.91
2022-09-06T07:28:00.578Z,13.88
2022-09-06T07:30:36.136Z,13.85
2022-09-06T07:33:06.621Z,13.88
2022-09-06T07:35:36.523Z,13.86
2022-09-06T07:38:06.370Z,13.85
2022-09-06T07:40:36.331Z,13.84
2022-09-06T07:43:06.308Z,13.85
2022-09-06T07:45:36.828Z,13.86
2022-09-06T07:48:07.119Z,13.81
2022-09-06T07:50:54.633Z,13.81
2022-09-06T07:53:30.927Z,13.77
2022-09-06T07:56:02.860Z,13.75
2022-09-06T07:58:33.877Z,13.71
2022-09-06T08:01:20.229Z,13.64
2022-09-06T08:03:50.422Z,13.55
2022-09-06T08:06:20.336Z,13.51
2022-09-06T08:08:58.301Z,13.40
2022-09-06T08:11:35.688Z,13.40
2022-09-06T08:14:08.807Z,13.41
2022-09-06T08:16:40.702Z,13.36
2022-09-06T08:19:12.130Z,13.40
2022-09-06T08:21:43.076Z,13.39
2022-09-06T08:24:13.567Z,13.36
2022-09-06T08:26:46.244Z,13.36
2022-09-06T08:29:16.635Z,13.34
2022-09-06T08:31:47.674Z,13.27
2022-09-06T08:34:17.999Z,13.26
2022-09-06T08:36:47.838Z,13.24
2022-09-06T08:39:18.014Z,13.24
2022-09-06T08:41:50.864Z,13.24
2022-09-06T08:47:24.380Z,13.16
2022-09-06T08:49:57.021Z,13.12
2022-09-06T08:53:00.111Z,13.09
2022-09-06T08:55:40.619Z,13.00
2022-09-06T08:58:28.847Z,13.02
2022-09-06T09:01:11.257Z,13.00
2022-09-06T09:03:44.164Z,12.96
2022-09-06T09:06:14.783Z,12.97
2022-09-06T09:09:07.077Z,12.93
2022-09-06T09:11:40.867Z,12.91
2022-09-06T09:14:19.050Z,12.93
2022-09-06T09:17:06.325Z,12.92
2022-09-06T09:19:39.007Z,12.89
2022-09-06T09:22:10.537Z,12.88
2022-09-06T09:24:40.701Z,12.91
2022-09-06T09:27:13.946Z,12.86
2022-09-06T09:32:48.812Z,12.81
2022-09-06T09:35:54.341Z,12.78
2022-09-06T09:38:42.879Z,12.79
2022-09-06T09:41:34.444Z,12.69
2022-09-06T09:44:09.108Z,12.66
2022-09-06T09:46:41.377Z,12.66
2022-09-06T09:49:38.075Z,12.66
2022-09-06T09:52:17.966Z,12.61
2022-09-06T09:54:49.290Z,12.59
2022-09-06T09:57:21.419Z,12.61
2022-09-06T10:00:07.683Z,12.56
2022-09-06T10:02:43.201Z,12.62
2022-09-06T10:05:14.519Z,12.68
2022-09-06T10:07:53.125Z,12.71
2022-09-06T10:10:28.721Z,12.79
2022-09-06T10:13:12.116Z,12.91
2022-09-06T10:15:43.028Z,13.02
2022-09-06T10:18:43.330Z,13.16
2022-09-06T10:21:23.600Z,13.26
2022-09-06T10:27:03.469Z,13.51
2022-09-06T10:29:36.582Z,13.68
2022-09-06T10:32:30.799Z,13.75
2022-09-06T10:35:28.046Z,13.88
2022-09-06T10:38:39.971Z,13.89
2022-09-06T10:41:22.025Z,13.88
2022-09-06T10:44:01.367Z,13.85
2022-09-06T10:46:36.648Z,13.79
2022-09-06T10:49:10.220Z,13.77
2022-09-06T10:52:06.397Z,13.82
2022-09-06T10:54:42.304Z,14.04
2022-09-06T11:00:25.797Z,14.36
2022-09-06T11:06:12.939Z,14.63
2022-09-06T11:08:58.273Z,14.74
2022-09-06T11:12:07.728Z,14.80
2022-09-06T11:14:39.616Z,14.85
2022-09-06T11:17:23.044Z,14.98
2022-09-06T11:20:15.270Z,15.35
2022-09-06T11:22:56.807Z,15.82
2022-09-06T11:25:35.900Z,15.97
2022-09-06T11:28:12.474Z,16.11
2022-09-06T11:30:50.884Z,16.32
2022-09-06T11:33:36.821Z,16.64
2022-09-06T11:36:28.346Z,16.93
2022-09-06T11:39:08.230Z,17.08
2022-09-06T11:41:43.819Z,17.09
2022-09-06T11:44:14.150Z,17.19
2022-09-06T11:46:44.130Z,17.48
2022-09-06T11:49:17.266Z,17.51
2022-09-06T11:51:48.841Z,17.51
2022-09-06T11:54:24.463Z,17.58
2022-09-06T11:57:02.761Z,17.29
2022-09-06T11:59:44.374Z,17.33
2022-09-06T12:02:47.335Z,17.54
2022-09-06T12:05:27.468Z,17.77
2022-09-06T12:08:30.321Z,17.87
2022-09-06T12:11:04.701Z,17.84
2022-09-06T12:13:50.144Z,17.54
2022-09-06T12:16:20.781Z,17.36
2022-09-06T12:18:51.077Z,17.18
2022-09-06T12:21:41.550Z,17.03
2022-09-06T12:24:39.724Z,17.12
2022-09-06T12:27:19.789Z,17.20
2022-09-06T12:30:00.587Z,17.46
2022-09-06T12:32:37.132Z,17.34
2022-09-06T12:38:15.747Z,17.12
2022-09-06T12:40:53.095Z,16.92
2022-09-06T12:43:23.644Z,16.88
2022-09-06T12:45:55.024Z,16.78
2022-09-06T12:48:33.660Z,16.68
2022-09-06T12:51:04.110Z,16.83
2022-09-06T12:53:36.003Z,16.99
2022-09-06T12:56:09.913Z,16.99
2022-09-06T12:58:40.868Z,16.92
2022-09-06T13:01:17.132Z,17.00
2022-09-06T13:04:04.006Z,17.03
2022-09-06T13:06:43.200Z,17.12
2022-09-06T13:09:16.751Z,17.27
2022-09-06T13:11:52.879Z,17.54
2022-09-06T13:14:29.314Z,17.73
2022-09-06T13:17:01.106Z,17.74
2022-09-06T13:19:38.151Z,17.70
2022-09-06T13:22:12.078Z,17.68
2022-09-06T13:24:50.327Z,17.66
2022-09-06T13:27:29.755Z,17.78
2022-09-06T13:30:02.345Z,17.77
2022-09-06T13:32:32.981Z,17.88
2022-09-06T13:35:04.183Z,17.95
2022-09-06T13:37:37.494Z,17.94
2022-09-06T13:41:10.662Z,17.99
2022-09-06T13:43:46.322Z,17.92
2022-09-06T13:46:16.493Z,17.98
2022-09-06T13:48:46.758Z,17.92
2022-09-06T13:51:17.074Z,17.87
2022-09-06T13:53:47.131Z,17.82
2022-09-06T13:56:18.101Z,17.74
2022-09-06T13:58:48.456Z,17.68
2022-09-06T14:01:18.839Z,17.66
2022-09-06T14:03:51.115Z,17.67
2022-09-06T14:06:21.695Z,17.74
2022-09-06T14:09:08.583Z,17.78
2022-09-06T14:11:40.907Z,17.73
2022-09-06T14:14:13.446Z,17.67
2022-09-06T14:16:43.475Z,17.70
2022-09-06T14:19:14.299Z,17.79
2022-09-06T14:21:45.094Z,17.70
2022-09-06T14:24:15.244Z,17.61
2022-09-06T14:26:45.211Z,17.60
2022-09-06T14:29:15.081Z,17.54
2022-09-06T14:31:45.527Z,17.58
2022-09-06T14:34:15.831Z,17.57
2022-09-06T14:36:45.768Z,17.66
2022-09-06T14:39:15.811Z,17.55
2022-09-06T14:41:45.742Z,17.47
2022-09-06T14:44:15.728Z,17.36
2022-09-06T14:46:45.861Z,17.26
2022-09-06T14:49:15.852Z,17.09
2022-09-06T14:51:47.124Z,17.02
2022-09-06T14:54:17.870Z,17.00
2022-09-06T14:56:48.096Z,17.09
2022-09-06T14:59:18.358Z,17.05
2022-09-06T15:01:49.199Z,17.10
2022-09-06T15:04:19.524Z,17.22
2022-09-06T15:06:49.601Z,17.33
2022-09-06T15:09:20.384Z,17.51
2022-09-06T15:11:52.890Z,17.82
2022-09-06T15:14:26.394Z,18.16
2022-09-06T15:17:00.714Z,18.21
2022-09-06T15:19:34.257Z,18.59
2022-09-06T15:22:06.373Z,18.71
2022-09-06T15:24:37.835Z,18.80
2022-09-06T15:27:08.088Z,19.00
2022-09-06T15:29:38.410Z,19.10
2022-09-06T15:32:08.756Z,19.28
2022-09-06T15:34:38.608Z,19.42
2022-09-06T15:37:08.591Z,19.22
2022-09-06T15:39:38.497Z,18.73
2022-09-06T15:42:08.844Z,18.61
2022-09-06T15:44:38.830Z,18.42
2022-09-06T15:47:09.104Z,18.18
2022-09-06T15:49:39.230Z,18.22
2022-09-06T15:52:10.624Z,18.24
2022-09-06T15:54:59.165Z,18.26
2022-09-06T15:57:30.287Z,18.30
2022-09-06T16:00:00.579Z,18.16
2022-09-06T16:02:30.686Z,18.13
2022-09-06T16:05:01.101Z,18.25
2022-09-06T16:07:31.614Z,18.15
2022-09-06T16:10:02.187Z,18.10
2022-09-06T16:12:32.486Z,18.33
2022-09-06T16:15:03.367Z,18.49
2022-09-06T16:17:34.023Z,18.60
2022-09-06T16:20:05.605Z,18.57
2022-09-06T16:22:35.879Z,19.19
2022-09-06T16:25:06.661Z,19.65
2022-09-06T16:27:37.213Z,20.14
2022-09-06T16:30:08.114Z,20.86
2022-09-06T16:32:38.694Z,21.33
2022-09-06T16:35:09.276Z,21.40
2022-09-06T16:37:39.444Z,21.29
2022-09-06T16:40:11.080Z,20.71
2022-09-06T16:42:41.418Z,20.98
2022-09-06T16:45:12.823Z,21.15
2022-09-06T16:47:43.819Z,20.67
2022-09-06T16:50:14.325Z,20.48
2022-09-06T16:52:44.498Z,20.57
2022-09-06T16:55:15.097Z,20.35
2022-09-06T16:57:45.982Z,20.48
2022-09-06T17:00:17.307Z,20.27
2022-09-06T17:02:48.865Z,20.49
2022-09-06T17:05:19.295Z,20.71
2022-09-06T17:07:49.778Z,20.84
2022-09-06T17:10:20.166Z,20.68
2022-09-06T17:12:50.138Z,20.27
2022-09-06T17:15:20.201Z,20.09
2022-09-06T17:17:50.632Z,19.87
2022-09-06T17:20:21.833Z,19.83
2022-09-06T17:22:52.704Z,19.92
2022-09-06T17:25:22.928Z,19.70
2022-09-06T17:27:53.213Z,19.72
2022-09-06T17:30:23.203Z,19.45
2022-09-06T17:32:54.057Z,19.41
2022-09-06T17:35:24.020Z,19.36
2022-09-06T17:37:54.458Z,19.31
2022-09-06T17:40:24.505Z,19.28
2022-09-06T17:42:54.369Z,19.15
2022-09-06T17:45:24.598Z,19.01
2022-09-06T17:47:54.827Z,18.96
2022-09-06T17:50:24.853Z,18.84
2022-09-06T17:52:55.129Z,18.80
2022-09-06T17:55:25.381Z,18.77
2022-09-06T17:57:55.511Z,18.67
2022-09-06T18:00:26.498Z,18.53
2022-09-06T18:02:57.363Z,18.40
2022-09-06T18:05:27.973Z,18.42
2022-09-06T18:07:58.427Z,18.47
2022-09-06T18:10:28.392Z,18.46
2022-09-06T18:12:58.288Z,18.50
2022-09-06T18:15:28.231Z,18.49
2022-09-06T18:17:59.265Z,18.60
2022-09-06T18:20:29.429Z,18.59
2022-09-06T18:22:59.957Z,18.67
2022-09-06T18:25:30.304Z,18.74
2022-09-06T18:28:00.555Z,18.83
2022-09-06T18:30:30.471Z,18.94
2022-09-06T18:33:00.338Z,19.11
2022-09-06T18:35:30.298Z,19.42
2022-09-06T18:38:00.550Z,19.49
2022-09-06T18:40:30.473Z,19.79
2022-09-06T18:43:00.641Z,20.05
2022-09-06T18:45:32.651Z,20.21
2022-09-06T18:48:02.961Z,20.30
2022-09-06T18:50:32.782Z,20.23
2022-09-06T18:53:02.731Z,20.14
2022-09-06T18:55:44.008Z,19.83
2022-09-06T18:58:15.355Z,19.98
2022-09-06T19:00:45.718Z,20.47
2022-09-06T19:03:15.888Z,20.68
2022-09-06T19:05:45.821Z,20.86
2022-09-06T19:08:15.663Z,21.05
2022-09-06T19:10:45.856Z,21.15
2022-09-06T19:13:16.190Z,21.26
2022-09-06T19:15:46.654Z,21.32
2022-09-06T19:18:16.577Z,21.15
2022-09-06T19:20:47.979Z,21.64
2022-09-06T19:23:18.526Z,21.88
2022-09-06T19:25:48.570Z,21.73
2022-09-06T19:28:18.625Z,21.02
2022-09-06T19:30:48.608Z,20.55
2022-09-06T19:33:18.788Z,20.16
2022-09-06T19:36:07.954Z,20.05
2022-09-06T19:39:01.899Z,20.13
2022-09-06T19:41:33.538Z,20.47
2022-09-06T19:44:06.630Z,20.49
2022-09-06T19:46:38.888Z,20.52
2022-09-06T19:49:11.570Z,20.55
2022-09-06T19:51:42.137Z,20.45
2022-09-06T19:54:12.330Z,20.12
2022-09-06T19:56:42.511Z,19.83
2022-09-06T19:59:14.092Z,19.72
2022-09-06T20:01:46.015Z,19.46
2022-09-06T20:04:16.944Z,19.21
2022-09-06T20:06:47.419Z,19.07
2022-09-06T20:09:18.109Z,18.98
2022-09-06T20:11:48.825Z,18.83
2022-09-06T20:14:18.744Z,18.93
2022-09-06T20:16:48.697Z,19.00
2022-09-06T20:19:18.690Z,19.03
2022-09-06T20:21:49.012Z,19.00
2022-09-06T20:24:19.034Z,19.03
2022-09-06T20:26:49.491Z,19.10
2022-09-06T20:29:19.508Z,19.03
2022-09-06T20:31:49.434Z,19.01
2022-09-06T20:34:20.178Z,18.90
2022-09-06T20:36:50.752Z,18.77
2022-09-06T20:39:20.941Z,18.73
2022-09-06T20:41:50.860Z,18.71
2022-09-06T20:44:21.035Z,18.61
2022-09-06T20:46:51.445Z,18.61
2022-09-06T20:49:22.700Z,18.55
2022-09-06T20:51:52.717Z,18.56
2022-09-06T20:54:22.566Z,18.56
2022-09-06T20:56:52.777Z,18.55
2022-09-06T20:59:23.004Z,18.45
2022-09-06T21:01:54.747Z,18.36
2022-09-06T21:04:24.867Z,18.33
2022-09-06T21:06:55.390Z,18.21
2022-09-06T21:09:25.926Z,18.19
2022-09-06T21:11:56.600Z,18.21
2022-09-06T21:14:26.958Z,18.13
2022-09-06T21:16:57.395Z,18.15
2022-09-06T21:19:27.643Z,18.12
2022-09-06T21:21:57.769Z,18.06
2022-09-06T21:24:27.666Z,18.05
2022-09-06T21:26:57.558Z,18.02
2022-09-06T21:29:27.495Z,18.01
2022-09-06T21:31:57.435Z,17.97
2022-09-06T21:34:27.485Z,17.99
2022-09-06T21:36:59.417Z,17.98
2022-09-06T21:39:29.531Z,17.92
2022-09-06T21:41:59.905Z,17.91
2022-09-06T21:44:30.030Z,17.89
2022-09-06T21:47:00.265Z,17.89
2022-09-06T21:49:30.203Z,17.85
2022-09-06T21:52:00.279Z,17.84
2022-09-06T21:54:30.384Z,17.81
2022-09-06T21:57:00.303Z,17.74
2022-09-06T21:59:30.256Z,17.73
2022-09-06T22:02:00.238Z,17.75
2022-09-06T22:04:30.258Z,17.73
2022-09-06T22:07:00.701Z,17.71
2022-09-06T22:09:30.980Z,17.60
2022-09-06T22:12:00.944Z,17.50
2022-09-06T22:14:30.820Z,17.41
2022-09-06T22:17:00.705Z,17.39
2022-09-06T22:19:30.584Z,17.29
2022-09-06T22:22:00.453Z,17.26
2022-09-06T22:24:31.056Z,17.18
2022-09-06T22:27:01.129Z,17.10
2022-09-06T22:29:31.571Z,17.09
2022-09-06T22:32:01.503Z,17.06
2022-09-06T22:34:31.570Z,17.03
2022-09-06T22:37:01.449Z,17.10
2022-09-06T22:39:32.122Z,17.08
2022-09-06T22:42:02.373Z,17.08
2022-09-06T22:44:33.203Z,17.10
2022-09-06T22:47:03.347Z,17.08
2022-09-06T22:49:33.963Z,17.08
2022-09-06T22:52:04.228Z,17.05
2022-09-06T22:54:34.301Z,16.98
2022-09-06T22:57:05.326Z,16.93
2022-09-06T22:59:38.753Z,16.88
2022-09-06T23:02:08.814Z,16.79
2022-09-06T23:04:38.769Z,16.76
2022-09-06T23:07:08.732Z,16.80
2022-09-06T23:09:39.053Z,16.78
2022-09-06T23:12:09.108Z,16.80
2022-09-06T23:14:39.535Z,16.82
2022-09-06T23:17:09.656Z,16.85
2022-09-06T23:19:40.226Z,16.90
2022-09-06T23:22:10.264Z,16.95
2022-09-06T23:24:41.118Z,16.99
2022-09-06T23:27:11.410Z,16.98
2022-09-06T23:29:45.137Z,17.00
2022-09-06T23:32:15.506Z,16.98
2022-09-06T23:34:45.373Z,16.96
2022-09-06T23:37:15.779Z,16.95
2022-09-06T23:39:46.072Z,16.95
2022-09-06T23:42:16.602Z,16.95
2022-09-06T23:44:46.641Z,16.99
2022-09-06T23:47:16.701Z,17.00
2022-09-06T23:49:47.085Z,16.99
2022-09-06T23:52:17.132Z,16.98
2022-09-06T23:54:47.424Z,16.93
2022-09-06T23:57:17.504Z,16.88
2022-09-06T23:59:47.478Z,16.90
